sensor_id;sensor_type;location;lat;lon;timestamp;pressure;altitude;pressure_sealevel;temperature;humidity
32033;BME280;31720;52.638;9.216;2024-02-16T00:01:48;100891.75;;;10.84;100.00
32033;BME280;31720;52.638;9.216;2024-02-16T00:04:51;100895.41;;;10.82;100.00
32033;BME280;31720;52.638;9.216;2024-02-16T00:07:52;100889.31;;;10.81;100.00
32033;BME280;31720;52.638;9.216;2024-02-16T00:10:53;100887.56;;;10.80;100.00
32033;BME280;31720;52.638;9.216;2024-02-16T00:13:55;100880.03;;;10.74;100.00
32033;BME280;31720;52.638;9.216;2024-02-16T00:16:57;100874.06;;;10.71;100.00
32033;BME280;31720;52.638;9.216;2024-02-16T00:19:59;100877.72;;;10.68;100.00
32033;BME280;31720;52.638;9.216;2024-02-16T00:23:03;100877.97;;;10.63;100.00
32033;BME280;31720;52.638;9.216;2024-02-16T00:26:06;100884.13;;;10.62;100.00
32033;BME280;31720;52.638;9.216;2024-02-16T00:29:08;100871.16;;;10.59;100.00
32033;BME280;31720;52.638;9.216;2024-02-16T00:32:09;100870.38;;;10.57;100.00
32033;BME280;31720;52.638;9.216;2024-02-16T00:35:12;100879.03;;;10.59;100.00
32033;BME280;31720;52.638;9.216;2024-02-16T00:38:13;100868.69;;;10.56;100.00
32033;BME280;31720;52.638;9.216;2024-02-16T00:41:19;100874.63;;;10.60;100.00
32033;BME280;31720;52.638;9.216;2024-02-16T00:44:20;100861.81;;;10.54;100.00
32033;BME280;31720;52.638;9.216;2024-02-16T00:47:22;100863.50;;;10.55;100.00
32033;BME280;31720;52.638;9.216;2024-02-16T00:50:25;100860.78;;;10.56;100.00
32033;BME280;31720;52.638;9.216;2024-02-16T00:53:26;100854.84;;;10.53;100.00
32033;BME280;31720;52.638;9.216;2024-02-16T00:56:27;100862.06;;;10.49;100.00
32033;BME280;31720;52.638;9.216;2024-02-16T00:59:29;100855.25;;;10.45;100.00
32033;BME280;31720;52.638;9.216;2024-02-16T01:02:30;100854.00;;;10.52;100.00
32033;BME280;31720;52.638;9.216;2024-02-16T01:05:34;100848.81;;;10.51;100.00
32033;BME280;31720;52.638;9.216;2024-02-16T01:08:36;100850.38;;;10.55;100.00
32033;BME280;31720;52.638;9.216;2024-02-16T01:11:37;100849.44;;;10.56;100.00
32033;BME280;31720;52.638;9.216;2024-02-16T01:14:39;100844.31;;;10.53;100.00
32033;BME280;31720;52.638;9.216;2024-02-16T01:17:40;100842.78;;;10.49;100.00
32033;BME280;31720;52.638;9.216;2024-02-16T01:20:43;100837.00;;;10.42;100.00
32033;BME280;31720;52.638;9.216;2024-02-16T01:23:44;100837.09;;;10.40;100.00
32033;BME280;31720;52.638;9.216;2024-02-16T01:26:45;100835.13;;;10.44;100.00
32033;BME280;31720;52.638;9.216;2024-02-16T01:29:47;100848.69;;;10.54;100.00
32033;BME280;31720;52.638;9.216;2024-02-16T01:32:48;100844.94;;;10.58;100.00
32033;BME280;31720;52.638;9.216;2024-02-16T01:35:51;100844.09;;;10.57;100.00
32033;BME280;31720;52.638;9.216;2024-02-16T01:38:52;100839.69;;;10.58;100.00
32033;BME280;31720;52.638;9.216;2024-02-16T01:41:53;100844.03;;;10.59;100.00
32033;BME280;31720;52.638;9.216;2024-02-16T01:44:55;100836.06;;;10.60;100.00
32033;BME280;31720;52.638;9.216;2024-02-16T01:47:56;100843.25;;;10.57;100.00
32033;BME280;31720;52.638;9.216;2024-02-16T01:51:00;100840.63;;;10.57;100.00
32033;BME280;31720;52.638;9.216;2024-02-16T01:54:02;100832.38;;;10.47;100.00
32033;BME280;31720;52.638;9.216;2024-02-16T01:57:05;100831.19;;;10.53;100.00
32033;BME280;31720;52.638;9.216;2024-02-16T02:00:08;100823.47;;;10.50;100.00
32033;BME280;31720;52.638;9.216;2024-02-16T02:03:10;100828.03;;;10.46;100.00
32033;BME280;31720;52.638;9.216;2024-02-16T02:06:14;100821.25;;;10.42;100.00
32033;BME280;31720;52.638;9.216;2024-02-16T02:09:15;100817.69;;;10.43;100.00
32033;BME280;31720;52.638;9.216;2024-02-16T02:12:17;100824.47;;;10.47;100.00
32033;BME280;31720;52.638;9.216;2024-02-16T02:15:18;100819.13;;;10.49;100.00
32033;BME280;31720;52.638;9.216;2024-02-16T02:18:20;100812.97;;;10.50;100.00
32033;BME280;31720;52.638;9.216;2024-02-16T02:21:22;100811.25;;;10.49;100.00
32033;BME280;31720;52.638;9.216;2024-02-16T02:24:25;100805.09;;;10.50;100.00
32033;BME280;31720;52.638;9.216;2024-02-16T02:27:26;100802.47;;;10.50;100.00
32033;BME280;31720;52.638;9.216;2024-02-16T02:30:28;100798.13;;;10.49;100.00
32033;BME280;31720;52.638;9.216;2024-02-16T02:33:29;100791.25;;;10.46;100.00
32033;BME280;31720;52.638;9.216;2024-02-16T02:36:30;100791.34;;;10.45;100.00
32033;BME280;31720;52.638;9.216;2024-02-16T02:39:34;100782.53;;;10.46;100.00
32033;BME280;31720;52.638;9.216;2024-02-16T02:42:35;100776.50;;;10.44;100.00
32033;BME280;31720;52.638;9.216;2024-02-16T02:45:37;100779.06;;;10.45;100.00
32033;BME280;31720;52.638;9.216;2024-02-16T02:48:38;100773.88;;;10.44;100.00
32033;BME280;31720;52.638;9.216;2024-02-16T02:51:39;100772.09;;;10.44;100.00
32033;BME280;31720;52.638;9.216;2024-02-16T02:54:42;100776.44;;;10.45;100.00
32033;BME280;31720;52.638;9.216;2024-02-16T02:57:43;100776.50;;;10.44;100.00
32033;BME280;31720;52.638;9.216;2024-02-16T03:00:45;100763.44;;;10.42;100.00
32033;BME280;31720;52.638;9.216;2024-02-16T03:03:46;100770.47;;;10.41;100.00
32033;BME280;31720;52.638;9.216;2024-02-16T03:06:48;100759.81;;;10.45;100.00
32033;BME280;31720;52.638;9.216;2024-02-16T03:09:50;100767.75;;;10.43;100.00
32033;BME280;31720;52.638;9.216;2024-02-16T03:12:51;100760.81;;;10.42;100.00
32033;BME280;31720;52.638;9.216;2024-02-16T03:15:54;100761.66;;;10.43;100.00
32033;BME280;31720;52.638;9.216;2024-02-16T03:18:55;100754.72;;;10.41;100.00
32033;BME280;31720;52.638;9.216;2024-02-16T03:21:57;100758.44;;;10.37;100.00
32033;BME280;31720;52.638;9.216;2024-02-16T03:25:00;100751.50;;;10.36;100.00
32033;BME280;31720;52.638;9.216;2024-02-16T03:28:02;100756.75;;;10.36;100.00
32033;BME280;31720;52.638;9.216;2024-02-16T03:31:03;100749.72;;;10.37;100.00
32033;BME280;31720;52.638;9.216;2024-02-16T03:34:05;100754.88;;;10.38;100.00
32033;BME280;31720;52.638;9.216;2024-02-16T03:37:06;100752.41;;;10.35;100.00
32033;BME280;31720;52.638;9.216;2024-02-16T03:40:11;100753.41;;;10.33;100.00
32033;BME280;31720;52.638;9.216;2024-02-16T03:43:13;100748.88;;;10.36;100.00
32033;BME280;31720;52.638;9.216;2024-02-16T03:46:15;100750.56;;;10.37;100.00
32033;BME280;31720;52.638;9.216;2024-02-16T03:49:16;100757.50;;;10.38;100.00
32033;BME280;31720;52.638;9.216;2024-02-16T03:52:17;100752.16;;;10.40;100.00
32033;BME280;31720;52.638;9.216;2024-02-16T03:55:20;100749.63;;;10.38;100.00
32033;BME280;31720;52.638;9.216;2024-02-16T03:58:22;100746.00;;;10.41;100.00
32033;BME280;31720;52.638;9.216;2024-02-16T04:01:23;100739.09;;;10.38;100.00
32033;BME280;31720;52.638;9.216;2024-02-16T04:04:24;100741.81;;;10.37;100.00
32033;BME280;31720;52.638;9.216;2024-02-16T04:07:27;100734.09;;;10.34;100.00
32033;BME280;31720;52.638;9.216;2024-02-16T04:10:29;100728.09;;;10.32;100.00
32033;BME280;31720;52.638;9.216;2024-02-16T04:13:31;100722.75;;;10.33;100.00
32033;BME280;31720;52.638;9.216;2024-02-16T04:16:32;100730.78;;;10.30;100.00
32033;BME280;31720;52.638;9.216;2024-02-16T04:19:36;100726.56;;;10.28;100.00
32033;BME280;31720;52.638;9.216;2024-02-16T04:22:37;100730.97;;;10.27;100.00
32033;BME280;31720;52.638;9.216;2024-02-16T04:25:40;100725.91;;;10.23;100.00
32033;BME280;31720;52.638;9.216;2024-02-16T04:28:41;100726.22;;;10.16;100.00
32033;BME280;31720;52.638;9.216;2024-02-16T04:31:42;100724.63;;;10.14;100.00
32033;BME280;31720;52.638;9.216;2024-02-16T04:34:45;100740.50;;;10.11;100.00
32033;BME280;31720;52.638;9.216;2024-02-16T04:37:47;100737.38;;;10.04;100.00
32033;BME280;31720;52.638;9.216;2024-02-16T04:40:50;100736.59;;;10.02;100.00
32033;BME280;31720;52.638;9.216;2024-02-16T04:43:52;100739.44;;;9.98;100.00
32033;BME280;31720;52.638;9.216;2024-02-16T04:46:54;100732.72;;;9.92;100.00
32033;BME280;31720;52.638;9.216;2024-02-16T04:49:55;100732.88;;;9.89;100.00
32033;BME280;31720;52.638;9.216;2024-02-16T04:52:57;100740.00;;;9.87;100.00
32033;BME280;31720;52.638;9.216;2024-02-16T04:55:59;100734.03;;;9.83;100.00
32033;BME280;31720;52.638;9.216;2024-02-16T04:59:02;100735.75;;;9.84;100.00
32033;BME280;31720;52.638;9.216;2024-02-16T05:02:03;100737.44;;;9.85;100.00
32033;BME280;31720;52.638;9.216;2024-02-16T05:05:07;100741.06;;;9.83;100.00
32033;BME280;31720;52.638;9.216;2024-02-16T05:08:08;100738.59;;;9.80;100.00
32033;BME280;31720;52.638;9.216;2024-02-16T05:11:11;100736.91;;;9.79;100.00
32033;BME280;31720;52.638;9.216;2024-02-16T05:14:12;100720.47;;;9.75;100.00
32033;BME280;31720;52.638;9.216;2024-02-16T05:17:13;100718.63;;;9.77;100.00
32033;BME280;31720;52.638;9.216;2024-02-16T05:20:15;100720.47;;;9.75;100.00
32033;BME280;31720;52.638;9.216;2024-02-16T05:23:16;100715.44;;;9.71;100.00
32033;BME280;31720;52.638;9.216;2024-02-16T05:26:19;100711.03;;;9.71;100.00
32033;BME280;31720;52.638;9.216;2024-02-16T05:29:20;100715.44;;;9.71;100.00
32033;BME280;31720;52.638;9.216;2024-02-16T05:32:22;100710.88;;;9.74;100.00
32033;BME280;31720;52.638;9.216;2024-02-16T05:35:23;100709.97;;;9.75;100.00
32033;BME280;31720;52.638;9.216;2024-02-16T05:38:27;100716.75;;;9.79;100.00
32033;BME280;31720;52.638;9.216;2024-02-16T05:41:36;100714.97;;;9.80;100.00
32033;BME280;31720;52.638;9.216;2024-02-16T05:44:38;100708.13;;;9.77;100.00
32033;BME280;31720;52.638;9.216;2024-02-16T05:47:40;100706.50;;;9.75;100.00
32033;BME280;31720;52.638;9.216;2024-02-16T05:50:41;100713.44;;;9.76;100.00
32033;BME280;31720;52.638;9.216;2024-02-16T05:53:43;100715.34;;;9.89;100.00
32033;BME280;31720;52.638;9.216;2024-02-16T05:56:46;100694.13;;;9.94;100.00
32033;BME280;31720;52.638;9.216;2024-02-16T05:59:49;100693.97;;;9.97;100.00
32033;BME280;31720;52.638;9.216;2024-02-16T06:02:52;100692.19;;;9.98;100.00
32033;BME280;31720;52.638;9.216;2024-02-16T06:05:53;100694.56;;;10.02;100.00
32033;BME280;31720;52.638;9.216;2024-02-16T06:08:54;100693.63;;;10.03;100.00
32033;BME280;31720;52.638;9.216;2024-02-16T06:11:57;100689.78;;;10.10;100.00
32033;BME280;31720;52.638;9.216;2024-02-16T06:14:59;100691.47;;;10.11;100.00
32033;BME280;31720;52.638;9.216;2024-02-16T06:18:01;100700.97;;;10.14;100.00
32033;BME280;31720;52.638;9.216;2024-02-16T06:21:03;100712.19;;;10.18;100.00
32033;BME280;31720;52.638;9.216;2024-02-16T06:24:05;100721.03;;;10.15;100.00
32033;BME280;31720;52.638;9.216;2024-02-16T06:27:09;100716.78;;;10.12;100.00
32033;BME280;31720;52.638;9.216;2024-02-16T06:30:12;100712.81;;;10.05;100.00
32033;BME280;31720;52.638;9.216;2024-02-16T06:33:13;100716.66;;;9.98;100.00
32033;BME280;31720;52.638;9.216;2024-02-16T06:36:14;100699.59;;;9.89;100.00
32033;BME280;31720;52.638;9.216;2024-02-16T06:39:16;100698.28;;;9.81;100.00
32033;BME280;31720;52.638;9.216;2024-02-16T06:42:20;100706.25;;;9.79;100.00
32033;BME280;31720;52.638;9.216;2024-02-16T06:45:21;100710.75;;;9.77;100.00
32033;BME280;31720;52.638;9.216;2024-02-16T06:48:22;100721.38;;;9.74;100.00
32033;BME280;31720;52.638;9.216;2024-02-16T06:51:24;100724.16;;;9.71;100.00
32033;BME280;31720;52.638;9.216;2024-02-16T06:54:26;100731.13;;;9.72;100.00
32033;BME280;31720;52.638;9.216;2024-02-16T06:57:29;100735.59;;;9.70;100.00
32033;BME280;31720;52.638;9.216;2024-02-16T07:00:31;100733.97;;;9.68;100.00
32033;BME280;31720;52.638;9.216;2024-02-16T07:03:32;100737.59;;;9.65;100.00
32033;BME280;31720;52.638;9.216;2024-02-16T07:06:35;100745.59;;;9.62;100.00
32033;BME280;31720;52.638;9.216;2024-02-16T07:09:37;100747.34;;;9.63;100.00
32033;BME280;31720;52.638;9.216;2024-02-16T07:12:41;100736.97;;;9.60;100.00
32033;BME280;31720;52.638;9.216;2024-02-16T07:15:42;100736.19;;;9.58;100.00
32033;BME280;31720;52.638;9.216;2024-02-16T07:18:44;100739.81;;;9.55;100.00
32033;BME280;31720;52.638;9.216;2024-02-16T07:21:45;100742.44;;;9.55;100.00
32033;BME280;31720;52.638;9.216;2024-02-16T07:24:46;100737.72;;;9.62;100.00
32033;BME280;31720;52.638;9.216;2024-02-16T07:27:49;100735.72;;;9.67;100.00
32033;BME280;31720;52.638;9.216;2024-02-16T07:30:53;100734.75;;;9.70;100.00
32033;BME280;31720;52.638;9.216;2024-02-16T07:33:55;100734.50;;;9.74;100.00
32033;BME280;31720;52.638;9.216;2024-02-16T07:36:56;100735.97;;;9.80;100.00
32033;BME280;31720;52.638;9.216;2024-02-16T07:39:58;100740.75;;;9.89;100.00
32033;BME280;31720;52.638;9.216;2024-02-16T07:43:01;100739.53;;;9.96;100.00
32033;BME280;31720;52.638;9.216;2024-02-16T07:46:03;100743.63;;;10.02;100.00
32033;BME280;31720;52.638;9.216;2024-02-16T07:49:05;100740.66;;;10.08;100.00
32033;BME280;31720;52.638;9.216;2024-02-16T07:52:06;100746.13;;;10.21;100.00
32033;BME280;31720;52.638;9.216;2024-02-16T07:55:09;100740.44;;;10.30;100.00
32033;BME280;31720;52.638;9.216;2024-02-16T07:58:12;100747.94;;;10.37;100.00
32033;BME280;31720;52.638;9.216;2024-02-16T08:01:13;100741.25;;;10.48;100.00
32033;BME280;31720;52.638;9.216;2024-02-16T08:04:16;100747.78;;;10.56;100.00
32033;BME280;31720;52.638;9.216;2024-02-16T08:07:17;100751.63;;;10.66;100.00
32033;BME280;31720;52.638;9.216;2024-02-16T08:10:19;100757.16;;;10.78;100.00
32033;BME280;31720;52.638;9.216;2024-02-16T08:13:23;100758.44;;;10.86;100.00
32033;BME280;31720;52.638;9.216;2024-02-16T08:16:24;100761.34;;;10.98;100.00
32033;BME280;31720;52.638;9.216;2024-02-16T08:19:31;100764.50;;;11.04;100.00
32033;BME280;31720;52.638;9.216;2024-02-16T08:22:33;100757.19;;;11.09;100.00
32033;BME280;31720;52.638;9.216;2024-02-16T08:25:35;100756.09;;;11.13;100.00
32033;BME280;31720;52.638;9.216;2024-02-16T08:28:38;100755.66;;;11.21;100.00
32033;BME280;31720;52.638;9.216;2024-02-16T08:31:39;100746.59;;;11.27;100.00
32033;BME280;31720;52.638;9.216;2024-02-16T08:34:41;100750.06;;;11.27;100.00
32033;BME280;31720;52.638;9.216;2024-02-16T08:37:42;100751.59;;;11.31;100.00
32033;BME280;31720;52.638;9.216;2024-02-16T08:40:43;100747.81;;;11.35;100.00
32033;BME280;31720;52.638;9.216;2024-02-16T08:43:48;100751.06;;;11.40;100.00
32033;BME280;31720;52.638;9.216;2024-02-16T08:46:49;100756.91;;;11.46;100.00
32033;BME280;31720;52.638;9.216;2024-02-16T08:49:51;100753.75;;;11.55;100.00
32033;BME280;31720;52.638;9.216;2024-02-16T08:52:52;100750.50;;;11.65;100.00
32033;BME280;31720;52.638;9.216;2024-02-16T08:55:54;100752.97;;;11.68;100.00
32033;BME280;31720;52.638;9.216;2024-02-16T08:58:58;100758.72;;;11.75;100.00
32033;BME280;31720;52.638;9.216;2024-02-16T09:01:59;100758.19;;;11.84;100.00
32033;BME280;31720;52.638;9.216;2024-02-16T09:05:01;100761.13;;;11.94;100.00
32033;BME280;31720;52.638;9.216;2024-02-16T09:08:03;100765.03;;;12.03;100.00
32033;BME280;31720;52.638;9.216;2024-02-16T09:11:05;100755.16;;;12.06;100.00
32033;BME280;31720;52.638;9.216;2024-02-16T09:14:08;100750.72;;;12.07;100.00
32033;BME280;31720;52.638;9.216;2024-02-16T09:17:09;100740.59;;;12.15;100.00
32033;BME280;31720;52.638;9.216;2024-02-16T09:20:11;100745.31;;;12.24;100.00
32033;BME280;31720;52.638;9.216;2024-02-16T09:23:12;100758.94;;;12.31;100.00
32033;BME280;31720;52.638;9.216;2024-02-16T09:26:14;100753.22;;;12.38;100.00
32033;BME280;31720;52.638;9.216;2024-02-16T09:29:17;100757.47;;;12.55;100.00
32033;BME280;31720;52.638;9.216;2024-02-16T09:32:19;100763.41;;;12.59;100.00
32033;BME280;31720;52.638;9.216;2024-02-16T09:35:20;100767.16;;;12.69;100.00
32033;BME280;31720;52.638;9.216;2024-02-16T09:38:21;100770.81;;;12.81;100.00
32033;BME280;31720;52.638;9.216;2024-02-16T09:41:23;100776.56;;;12.87;100.00
32033;BME280;31720;52.638;9.216;2024-02-16T09:44:26;100785.81;;;12.94;100.00
32033;BME280;31720;52.638;9.216;2024-02-16T09:47:29;100777.78;;;12.96;100.00
32033;BME280;31720;52.638;9.216;2024-02-16T09:50:33;100773.91;;;13.02;100.00
32033;BME280;31720;52.638;9.216;2024-02-16T09:53:34;100787.75;;;13.05;100.00
32033;BME280;31720;52.638;9.216;2024-02-16T09:56:36;100789.94;;;13.13;100.00
32033;BME280;31720;52.638;9.216;2024-02-16T09:59:38;100791.22;;;13.20;100.00
32033;BME280;31720;52.638;9.216;2024-02-16T10:02:40;100793.31;;;13.29;100.00
32033;BME280;31720;52.638;9.216;2024-02-16T10:05:42;100789.13;;;13.39;100.00
32033;BME280;31720;52.638;9.216;2024-02-16T10:08:47;100794.47;;;13.52;100.00
32033;BME280;31720;52.638;9.216;2024-02-16T10:11:50;100795.78;;;13.59;100.00
32033;BME280;31720;52.638;9.216;2024-02-16T10:14:56;100794.63;;;13.63;100.00
32033;BME280;31720;52.638;9.216;2024-02-16T10:17:59;100805.50;;;13.71;100.00
32033;BME280;31720;52.638;9.216;2024-02-16T10:21:01;100796.84;;;13.69;100.00
32033;BME280;31720;52.638;9.216;2024-02-16T10:24:05;100801.59;;;13.64;100.00
32033;BME280;31720;52.638;9.216;2024-02-16T10:27:13;100812.28;;;13.63;100.00
32033;BME280;31720;52.638;9.216;2024-02-16T10:30:17;100821.03;;;13.63;100.00
32033;BME280;31720;52.638;9.216;2024-02-16T10:33:19;100818.72;;;13.71;100.00
32033;BME280;31720;52.638;9.216;2024-02-16T10:36:21;100830.03;;;13.74;100.00
32033;BME280;31720;52.638;9.216;2024-02-16T10:39:23;100825.00;;;13.83;100.00
32033;BME280;31720;52.638;9.216;2024-02-16T10:42:27;100824.06;;;13.84;100.00
32033;BME280;31720;52.638;9.216;2024-02-16T10:45:32;100826.69;;;13.84;100.00
32033;BME280;31720;52.638;9.216;2024-02-16T10:48:33;100830.09;;;13.86;100.00
32033;BME280;31720;52.638;9.216;2024-02-16T10:51:37;100822.28;;;13.98;100.00
32033;BME280;31720;52.638;9.216;2024-02-16T10:54:39;100827.28;;;14.02;100.00
32033;BME280;31720;52.638;9.216;2024-02-16T10:57:44;100834.41;;;14.14;100.00
32033;BME280;31720;52.638;9.216;2024-02-16T11:00:51;100824.16;;;14.23;100.00
32033;BME280;31720;52.638;9.216;2024-02-16T11:04:00;100822.16;;;14.39;100.00
32033;BME280;31720;52.638;9.216;2024-02-16T11:07:10;100807.38;;;14.36;100.00
32033;BME280;31720;52.638;9.216;2024-02-16T11:10:12;100813.16;;;14.29;100.00
32033;BME280;31720;52.638;9.216;2024-02-16T11:13:22;100807.03;;;14.28;100.00
32033;BME280;31720;52.638;9.216;2024-02-16T11:16:24;100817.72;;;14.39;100.00
32033;BME280;31720;52.638;9.216;2024-02-16T11:19:26;100819.13;;;14.45;100.00
32033;BME280;31720;52.638;9.216;2024-02-16T11:22:28;100825.81;;;14.63;100.00
32033;BME280;31720;52.638;9.216;2024-02-16T11:25:32;100824.00;;;14.77;100.00
32033;BME280;31720;52.638;9.216;2024-02-16T11:28:34;100830.22;;;14.88;100.00
32033;BME280;31720;52.638;9.216;2024-02-16T11:31:37;100834.22;;;15.07;100.00
32033;BME280;31720;52.638;9.216;2024-02-16T11:34:39;100834.47;;;15.40;100.00
32033;BME280;31720;52.638;9.216;2024-02-16T11:37:40;100834.88;;;15.47;100.00
32033;BME280;31720;52.638;9.216;2024-02-16T11:40:52;100841.75;;;15.50;100.00
32033;BME280;31720;52.638;9.216;2024-02-16T11:43:59;100849.38;;;15.54;100.00
32033;BME280;31720;52.638;9.216;2024-02-16T11:47:02;100847.81;;;15.39;100.00
32033;BME280;31720;52.638;9.216;2024-02-16T11:50:06;100845.91;;;15.41;100.00
32033;BME280;31720;52.638;9.216;2024-02-16T11:53:15;100843.28;;;15.41;100.00
32033;BME280;31720;52.638;9.216;2024-02-16T11:56:22;100853.13;;;15.39;100.00
32033;BME280;31720;52.638;9.216;2024-02-16T11:59:24;100845.81;;;15.42;100.00
32033;BME280;31720;52.638;9.216;2024-02-16T12:02:27;100838.94;;;15.40;100.00
32033;BME280;31720;52.638;9.216;2024-02-16T12:05:29;100849.31;;;15.30;100.00
32033;BME280;31720;52.638;9.216;2024-02-16T12:08:34;100868.41;;;15.22;100.00
32033;BME280;31720;52.638;9.216;2024-02-16T12:11:36;100855.59;;;15.16;100.00
32033;BME280;31720;52.638;9.216;2024-02-16T12:14:38;100845.56;;;15.09;100.00
32033;BME280;31720;52.638;9.216;2024-02-16T12:17:40;100851.59;;;15.11;100.00
32033;BME280;31720;52.638;9.216;2024-02-16T12:20:42;100843.66;;;14.98;100.00
32033;BME280;31720;52.638;9.216;2024-02-16T12:23:47;100853.19;;;14.88;100.00
32033;BME280;31720;52.638;9.216;2024-02-16T12:26:49;100860.41;;;14.86;100.00
32033;BME280;31720;52.638;9.216;2024-02-16T12:29:51;100862.41;;;14.82;100.00
32033;BME280;31720;52.638;9.216;2024-02-16T12:32:54;100866.44;;;14.88;100.00
32033;BME280;31720;52.638;9.216;2024-02-16T12:35:55;100868.97;;;14.89;100.00
32033;BME280;31720;52.638;9.216;2024-02-16T12:38:57;100868.44;;;14.71;100.00
32033;BME280;31720;52.638;9.216;2024-02-16T12:41:58;100876.16;;;14.62;100.00
32033;BME280;31720;52.638;9.216;2024-02-16T12:45:00;100874.25;;;14.64;100.00
32033;BME280;31720;52.638;9.216;2024-02-16T12:48:03;100875.63;;;14.57;100.00
32033;BME280;31720;52.638;9.216;2024-02-16T12:51:04;100887.03;;;14.57;100.00
32033;BME280;31720;52.638;9.216;2024-02-16T12:54:06;100869.81;;;14.52;100.00
32033;BME280;31720;52.638;9.216;2024-02-16T12:57:12;100874.13;;;14.53;100.00
32033;BME280;31720;52.638;9.216;2024-02-16T13:00:14;100876.16;;;14.49;100.00
32033;BME280;31720;52.638;9.216;2024-02-16T13:03:16;100889.81;;;14.56;100.00
32033;BME280;31720;52.638;9.216;2024-02-16T13:06:18;100883.88;;;14.52;100.00
32033;BME280;31720;52.638;9.216;2024-02-16T13:09:19;100883.66;;;14.55;100.00
32033;BME280;31720;52.638;9.216;2024-02-16T13:12:21;100875.75;;;14.55;100.00
32033;BME280;31720;52.638;9.216;2024-02-16T13:15:23;100883.88;;;14.52;100.00
32033;BME280;31720;52.638;9.216;2024-02-16T13:18:26;100887.34;;;14.53;100.00
32033;BME280;31720;52.638;9.216;2024-02-16T13:21:27;100887.28;;;14.54;100.00
32033;BME280;31720;52.638;9.216;2024-02-16T13:24:29;100880.38;;;14.52;100.00
32033;BME280;31720;52.638;9.216;2024-02-16T13:27:30;100887.28;;;14.54;100.00
32033;BME280;31720;52.638;9.216;2024-02-16T13:30:32;100885.88;;;14.61;100.00
32033;BME280;31720;52.638;9.216;2024-02-16T13:33:34;100890.13;;;14.64;100.00
32033;BME280;31720;52.638;9.216;2024-02-16T13:36:36;100890.75;;;14.55;100.00
32033;BME280;31720;52.638;9.216;2024-02-16T13:39:37;100893.16;;;14.45;100.00
32033;BME280;31720;52.638;9.216;2024-02-16T13:42:39;100896.38;;;14.63;100.00
32033;BME280;31720;52.638;9.216;2024-02-16T13:45:51;100893.41;;;14.55;100.00
32033;BME280;31720;52.638;9.216;2024-02-16T13:48:54;100904.66;;;14.44;100.00
32033;BME280;31720;52.638;9.216;2024-02-16T13:51:56;100905.72;;;14.41;100.00
32033;BME280;31720;52.638;9.216;2024-02-16T13:54:59;100911.50;;;14.34;100.00
32033;BME280;31720;52.638;9.216;2024-02-16T13:58:00;100913.50;;;14.30;100.00
32033;BME280;31720;52.638;9.216;2024-02-16T14:01:02;100908.97;;;14.32;100.00
32033;BME280;31720;52.638;9.216;2024-02-16T14:04:05;100911.63;;;14.32;100.00
32033;BME280;31720;52.638;9.216;2024-02-16T14:07:06;100921.25;;;14.33;100.00
32033;BME280;31720;52.638;9.216;2024-02-16T14:10:08;100921.44;;;14.30;100.00
32033;BME280;31720;52.638;9.216;2024-02-16T14:13:09;100919.22;;;14.24;100.00
32033;BME280;31720;52.638;9.216;2024-02-16T14:16:11;100927.25;;;14.23;100.00
32033;BME280;31720;52.638;9.216;2024-02-16T14:19:13;100927.44;;;14.19;100.00
32033;BME280;31720;52.638;9.216;2024-02-16T14:22:15;100945.69;;;14.10;100.00
32033;BME280;31720;52.638;9.216;2024-02-16T14:25:16;100937.88;;;14.08;100.00
32033;BME280;31720;52.638;9.216;2024-02-16T14:28:18;100949.38;;;14.07;100.00
32033;BME280;31720;52.638;9.216;2024-02-16T14:31:20;100956.47;;;14.07;100.00
32033;BME280;31720;52.638;9.216;2024-02-16T14:34:23;100961.38;;;14.13;100.00
32033;BME280;31720;52.638;9.216;2024-02-16T14:37:24;100970.22;;;14.12;100.00
32033;BME280;31720;52.638;9.216;2024-02-16T14:40:28;100983.72;;;14.07;100.00
32033;BME280;31720;52.638;9.216;2024-02-16T14:43:29;100983.72;;;14.07;100.00
32033;BME280;31720;52.638;9.216;2024-02-16T14:46:30;100988.72;;;14.12;100.00
32033;BME280;31720;52.638;9.216;2024-02-16T14:49:33;100990.72;;;14.08;100.00
32033;BME280;31720;52.638;9.216;2024-02-16T14:52:34;100998.47;;;13.97;100.00
32033;BME280;31720;52.638;9.216;2024-02-16T14:55:36;101005.41;;;14.12;100.00
32033;BME280;31720;52.638;9.216;2024-02-16T14:58:38;101007.69;;;14.18;100.00
32033;BME280;31720;52.638;9.216;2024-02-16T15:01:39;101012.31;;;14.15;100.00
32033;BME280;31720;52.638;9.216;2024-02-16T15:04:42;101017.75;;;13.99;100.00
32033;BME280;31720;52.638;9.216;2024-02-16T15:07:43;101013.88;;;13.90;100.00
32033;BME280;31720;52.638;9.216;2024-02-16T15:10:44;101022.06;;;14.00;100.00
32033;BME280;31720;52.638;9.216;2024-02-16T15:13:46;101023.41;;;13.93;100.00
32033;BME280;31720;52.638;9.216;2024-02-16T15:16:49;101025.69;;;13.70;100.00
32033;BME280;31720;52.638;9.216;2024-02-16T15:19:52;101035.00;;;13.62;100.00
32033;BME280;31720;52.638;9.216;2024-02-16T15:22:54;101041.63;;;13.40;100.00
32033;BME280;31720;52.638;9.216;2024-02-16T15:25:55;101046.41;;;13.34;100.00
32033;BME280;31720;52.638;9.216;2024-02-16T15:28:57;101048.53;;;13.13;100.00
32033;BME280;31720;52.638;9.216;2024-02-16T15:31:59;101053.72;;;12.99;100.00
32033;BME280;31720;52.638;9.216;2024-02-16T15:35:02;101055.78;;;12.93;100.00
32033;BME280;31720;52.638;9.216;2024-02-16T15:38:03;101067.03;;;12.97;100.00
32033;BME280;31720;52.638;9.216;2024-02-16T15:41:06;101076.16;;;12.91;100.00